FYWW

Windhoek, Town MET Airport

Windhoek, Namibia
METAR FYWW 231100Z AUTO 10004KT //// // ////// 30/10 Q1015
Observed Flight Rules
Feb-23 @ 11:00 UTC (4 hours ago)
Wind
100° at 4 knots
Temperatures Readings
Current 30°C / 86°F
Dewpoint 10°C / 50°F
Humidity 29%
Altimeter 29.97" Hg
Pressure 1015 hPa
Elevation 1725
METAR FYWW 231100Z AUTO 10004KT //// // ////// 30/10 Q1015
Observed Flight Rules
Feb-23 @ 11:00 UTC
(4 hours ago)
Wind
100° at 4 knots
Temperature Dewpoint
30°C / 86°F 10°C / 50°F
Humidity Altimeter Pressure
29% 29.97" Hg 1015 hPa